Observation data for Northwest Lubbock on 06/25/2019      Previous  Date  Next       Current Mesonet Observations  Soil Data  Daily Summary Page  Observations in Plain Language
KLBW 250500Z 14010KT 23/22 A2998 RMK A01 T02260216  RH  100%=      5-min Rain = 0
KLBW 250505Z 14013G20KT 23/22 A2998 RMK A01 T02260216  RH  100%=      5-min Rain = 0
KLBW 250510Z 15010G15KT 23/22 A2998 RMK A01 T02260216  RH  100%=      5-min Rain = 0
KLBW 250515Z 15012G17KT 23/22 A2998 RMK A01 T02250215  RH  100%=      5-min Rain = 0
KLBW 250520Z 15012G18KT 23/21 A2998 RMK A01 T02250212  RH  098%=      5-min Rain = 0
KLBW 250525Z 14012KT 23/21 A2998 RMK A01 T02260212  RH  097%=      5-min Rain = 0
KLBW 250530Z 15012KT 23/21 A2998 RMK A01 T02260212  RH  097%=      5-min Rain = 0
KLBW 250535Z 15012G18KT 23/21 A2998 RMK A01 T02250212  RH  098%=      5-min Rain = 0
KLBW 250540Z 15010G19KT 22/21 A2998 RMK A01 T02240211  RH  098%=      5-min Rain = 0
KLBW 250545Z 15012G17KT 22/21 A2998 RMK A01 T02230207  RH  096%=      5-min Rain = 0
KLBW 250550Z 15009G14KT 22/20 A2998 RMK A01 T02220202  RH  093%=      5-min Rain = 0
KLBW 250555Z 15010G15KT 22/20 A2998 RMK A01 T02210195  RH  090%=      5-min Rain = 0
KLBW 250600Z 15009KT 22/19 A2998 RMK A01 T02190191  RH  089%=      5-min Rain = 0
KLBW 250605Z 15008KT 22/19 A2997 RMK A01 T02170186  RH  087%=      5-min Rain = 0
KLBW 250610Z 16007KT 22/18 A2997 RMK A01 T02160183  RH  086%=      5-min Rain = 0
KLBW 250615Z 17008KT 21/18 A2997 RMK A01 T02140179  RH  085%=      5-min Rain = 0
KLBW 250620Z 17007KT 21/18 A2997 RMK A01 T02130176  RH  084%=      5-min Rain = 0
KLBW 250625Z 16007KT 21/18 A2997 RMK A01 T02120175  RH  084%=      5-min Rain = 0
KLBW 250630Z 17006KT 21/17 A2997 RMK A01 T02100172  RH  083%=      5-min Rain = 0
KLBW 250635Z 18006KT 21/17 A2997 RMK A01 T02090170  RH  083%=      5-min Rain = 0
KLBW 250640Z 20006G11KT 21/17 A2997 RMK A01 T02080168  RH  082%=      5-min Rain = 0
KLBW 250645Z 19006KT 21/16 A2997 RMK A01 T02050163  RH  081%=      5-min Rain = 0
KLBW 250650Z 19006KT 20/16 A2997 RMK A01 T02030157  RH  078%=      5-min Rain = 0
KLBW 250655Z 18007KT 20/15 A2997 RMK A01 T02020152  RH  076%=      5-min Rain = 0
KLBW 250700Z 18007KT 20/15 A2997 RMK A01 T02020149  RH  075%=      5-min Rain = 0
KLBW 250705Z 17006KT 20/15 A2997 RMK A01 T02000147  RH  075%=      5-min Rain = 0
KLBW 250710Z 17006KT 20/15 A2997 RMK A01 T01990146  RH  075%=      5-min Rain = 0
KLBW 250715Z 18007KT 20/15 A2997 RMK A01 T01970145  RH  075%=      5-min Rain = 0
KLBW 250720Z 17006G11KT 20/14 A2997 RMK A01 T01970144  RH  075%=      5-min Rain = 0
KLBW 250725Z 18006KT 20/14 A2997 RMK A01 T01960144  RH  075%=      5-min Rain = 0
KLBW 250730Z 18007KT 20/14 A2996 RMK A01 T01950143  RH  075%=      5-min Rain = 0
KLBW 250735Z 18007KT 19/14 A2997 RMK A01 T01940140  RH  074%=      5-min Rain = 0
KLBW 250740Z 18007KT 19/14 A2997 RMK A01 T01940138  RH  073%=      5-min Rain = 0
KLBW 250745Z 17008KT 19/14 A2997 RMK A01 T01930136  RH  072%=      5-min Rain = 0
KLBW 250750Z 18007KT 19/13 A2997 RMK A01 T01940134  RH  071%=      5-min Rain = 0
KLBW 250755Z 18008KT 19/13 A2997 RMK A01 T01930132  RH  070%=      5-min Rain = 0
KLBW 250800Z 18008KT 19/13 A2996 RMK A01 T01940131  RH  070%=      5-min Rain = 0
KLBW 250805Z 18007KT 19/13 A2996 RMK A01 T01920131  RH  070%=      5-min Rain = 0
KLBW 250810Z 17006KT 19/13 A2996 RMK A01 T01900130  RH  071%=      5-min Rain = 0
KLBW 250815Z 18007G12KT 19/13 A2996 RMK A01 T01900129  RH  071%=      5-min Rain = 0
KLBW 250820Z 19006KT 19/13 A2997 RMK A01 T01890129  RH  071%=      5-min Rain = 0
KLBW 250825Z 19007KT 19/13 A2996 RMK A01 T01880129  RH  071%=      5-min Rain = 0
KLBW 250830Z 19007KT 19/13 A2996 RMK A01 T01870129  RH  072%=      5-min Rain = 0
KLBW 250835Z 18006KT 19/13 A2996 RMK A01 T01870128  RH  072%=      5-min Rain = 0
KLBW 250840Z 18007KT 19/13 A2996 RMK A01 T01850128  RH  072%=      5-min Rain = 0
KLBW 250845Z 18006KT 18/13 A2996 RMK A01 T01840129  RH  073%=      5-min Rain = 0
KLBW 250850Z 18006KT 18/13 A2996 RMK A01 T01830128  RH  073%=      5-min Rain = 0
KLBW 250855Z 18005KT 18/13 A2996 RMK A01 T01820128  RH  074%=      5-min Rain = 0
KLBW 250900Z 19006KT 18/13 A2996 RMK A01 T01790130  RH  076%=      5-min Rain = 0
KLBW 250905Z 19007G12KT 18/13 A2997 RMK A01 T01790130  RH  076%=      5-min Rain = 0
KLBW 250910Z 19009KT 18/13 A2997 RMK A01 T01830128  RH  073%=      5-min Rain = 0
KLBW 250915Z 19010KT 19/13 A2997 RMK A01 T01860127  RH  071%=      5-min Rain = 0
KLBW 250920Z 19010G15KT 19/13 A2997 RMK A01 T01850126  RH  071%=      5-min Rain = 0
KLBW 250925Z 19010KT 18/13 A2997 RMK A01 T01840126  RH  071%=      5-min Rain = 0
KLBW 250930Z 20009KT 18/13 A2997 RMK A01 T01840125  RH  071%=      5-min Rain = 0
KLBW 250935Z 20009G14KT 18/13 A2997 RMK A01 T01820125  RH  072%=      5-min Rain = 0
KLBW 250940Z 20010KT 18/13 A2997 RMK A01 T01840125  RH  071%=      5-min Rain = 0
KLBW 250945Z 20009KT 18/13 A2997 RMK A01 T01820125  RH  072%=      5-min Rain = 0
KLBW 250950Z 20009KT 18/13 A2997 RMK A01 T01820126  RH  072%=      5-min Rain = 0
KLBW 250955Z 20011G16KT 18/13 A2997 RMK A01 T01830126  RH  072%=      5-min Rain = 0
KLBW 251000Z 20010KT 18/13 A2997 RMK A01 T01840127  RH  072%=      5-min Rain = 0
KLBW 251005Z 21009KT 18/13 A2997 RMK A01 T01840128  RH  073%=      5-min Rain = 0
KLBW 251010Z 21010KT 18/13 A2997 RMK A01 T01840129  RH  073%=      5-min Rain = 0
KLBW 251015Z 21009G15KT 18/13 A2997 RMK A01 T01830130  RH  074%=      5-min Rain = 0
KLBW 251020Z 21007KT 18/13 A2998 RMK A01 T01830130  RH  074%=      5-min Rain = 0
KLBW 251025Z 21006KT 18/13 A2998 RMK A01 T01820131  RH  075%=      5-min Rain = 0
KLBW 251030Z 21007KT 18/13 A2998 RMK A01 T01820132  RH  076%=      5-min Rain = 0
KLBW 251035Z 21005KT 18/13 A2998 RMK A01 T01820132  RH  076%=      5-min Rain = 0
KLBW 251040Z 21006KT 18/13 A2998 RMK A01 T01810132  RH  076%=      5-min Rain = 0
KLBW 251045Z 22006KT 18/13 A2998 RMK A01 T01800133  RH  077%=      5-min Rain = 0
KLBW 251050Z 22005KT 18/13 A2999 RMK A01 T01810134  RH  077%=      5-min Rain = 0
KLBW 251055Z 22005KT 18/13 A2999 RMK A01 T01800134  RH  078%=      5-min Rain = 0
KLBW 251100Z 23004KT 18/14 A2999 RMK A01 T01790135  RH  078%=      5-min Rain = 0
KLBW 251105Z 22006KT 18/14 A2999 RMK A01 T01790135  RH  078%=      5-min Rain = 0
KLBW 251110Z 22006KT 18/14 A2999 RMK A01 T01800135  RH  078%=      5-min Rain = 0
KLBW 251115Z 22005KT 18/14 A30 RMK A01 T01790136  RH  079%=      5-min Rain = 0
KLBW 251120Z 23004KT 18/14 A30 RMK A01 T01770136  RH  080%=      5-min Rain = 0
KLBW 251125Z 22003KT 18/14 A30 RMK A01 T01760136  RH  081%=      5-min Rain = 0
KLBW 251130Z 21004KT 17/14 A30 RMK A01 T01730135  RH  082%=      5-min Rain = 0
KLBW 251135Z 21003KT 17/14 A30 RMK A01 T01730135  RH  082%=      5-min Rain = 0
KLBW 251140Z 22003KT 17/14 A30 RMK A01 T01720135  RH  082%=      5-min Rain = 0
KLBW 251145Z 23004KT 17/14 A3001 RMK A01 T01720136  RH  083%=      5-min Rain = 0
KLBW 251150Z 22005KT 17/14 A3001 RMK A01 T01740136  RH  082%=      5-min Rain = 0
KLBW 251155Z 23004KT 17/14 A3001 RMK A01 T01740137  RH  082%=      5-min Rain = 0
KLBW 251200Z 23004KT 17/14 A3001 RMK A01 T01740137  RH  082%=      5-min Rain = 0
KLBW 251205Z 24004KT 17/14 A3001 RMK A01 T01740137  RH  082%=      5-min Rain = 0
KLBW 251210Z 23004KT 18/14 A3001 RMK A01 T01750136  RH  081%=      5-min Rain = 0
KLBW 251215Z 22003KT 18/14 A3001 RMK A01 T01770137  RH  081%=      5-min Rain = 0
KLBW 251220Z 20003KT 18/14 A3002 RMK A01 T01790138  RH  080%=      5-min Rain = 0
KLBW 251225Z 21003KT 18/14 A3002 RMK A01 T01810137  RH  079%=      5-min Rain = 0
KLBW 251230Z 22004KT 18/14 A3002 RMK A01 T01840136  RH  077%=      5-min Rain = 0
KLBW 251235Z 23004KT 19/14 A3002 RMK A01 T01860136  RH  076%=      5-min Rain = 0
KLBW 251240Z 23004KT 19/14 A3002 RMK A01 T01890135  RH  074%=      5-min Rain = 0
KLBW 251245Z 23005KT 19/13 A3003 RMK A01 T01920134  RH  072%=      5-min Rain = 0
KLBW 251250Z 23005KT 19/14 A3003 RMK A01 T01940135  RH  071%=      5-min Rain = 0
KLBW 251255Z 23004KT 20/14 A3003 RMK A01 T01960136  RH  071%=      5-min Rain = 0
KLBW 251300Z 25005KT 20/14 A3003 RMK A01 T01970135  RH  070%=      5-min Rain = 0
KLBW 251305Z 25005KT 20/14 A3003 RMK A01 T01990137  RH  070%=      5-min Rain = 0
KLBW 251310Z 24006KT 20/14 A3003 RMK A01 T01990135  RH  069%=      5-min Rain = 0
KLBW 251315Z 24006KT 20/14 A3003 RMK A01 T02010135  RH  069%=      5-min Rain = 0
KLBW 251320Z 24005KT 20/14 A3003 RMK A01 T02030137  RH  069%=      5-min Rain = 0
KLBW 251325Z 26005KT 21/14 A3003 RMK A01 T02050138  RH  068%=      5-min Rain = 0
KLBW 251330Z 26006KT 20/14 A3003 RMK A01 T02040136  RH  067%=      5-min Rain = 0
KLBW 251335Z 26006KT 21/14 A3004 RMK A01 T02060135  RH  067%=      5-min Rain = 0
KLBW 251340Z 27004KT 21/14 A3004 RMK A01 T02090140  RH  068%=      5-min Rain = 0
KLBW 251345Z 26005KT 21/14 A3004 RMK A01 T02110140  RH  067%=      5-min Rain = 0
KLBW 251350Z 24005KT 21/14 A3004 RMK A01 T02110138  RH  065%=      5-min Rain = 0
KLBW 251355Z 23005KT 21/14 A3004 RMK A01 T02140141  RH  066%=      5-min Rain = 0
KLBW 251400Z 23005KT 22/14 A3004 RMK A01 T02170142  RH  065%=      5-min Rain = 0
KLBW 251405Z 24007KT 22/15 A3004 RMK A01 T02210146  RH  065%=      5-min Rain = 0
KLBW 251410Z 23007G14KT 22/15 A3004 RMK A01 T02240149  RH  065%=      5-min Rain = 0
KLBW 251415Z 22009KT 23/15 A3004 RMK A01 T02270151  RH  065%=      5-min Rain = 0
KLBW 251420Z 22009KT 23/15 A3004 RMK A01 T02300153  RH  065%=      5-min Rain = 0
KLBW 251425Z 23007KT 23/16 A3004 RMK A01 T02340157  RH  065%=      5-min Rain = 0
KLBW 251430Z 22011G16KT 23/16 A3004 RMK A01 T02340155  RH  064%=      5-min Rain = 0
KLBW 251435Z 22011KT 24/16 A3004 RMK A01 T02370159  RH  065%=      5-min Rain = 0
KLBW 251440Z 21011G16KT 24/16 A3004 RMK A01 T02390160  RH  064%=      5-min Rain = 0
KLBW 251445Z 22013G18KT 24/16 A3003 RMK A01 T02410160  RH  064%=      5-min Rain = 0
KLBW 251450Z 22013KT 24/16 A3003 RMK A01 T02410159  RH  063%=      5-min Rain = 0
KLBW 251455Z 22010G15KT 24/16 A3003 RMK A01 T02440162  RH  063%=      5-min Rain = 0
KLBW 251500Z 22009G15KT 25/17 A3003 RMK A01 T02480165  RH  063%=      5-min Rain = 0
KLBW 251505Z 23011G17KT 25/16 A3003 RMK A01 T02490163  RH  062%=      5-min Rain = 0
KLBW 251510Z 22010G16KT 25/17 A3003 RMK A01 T02510165  RH  062%=      5-min Rain = 0
KLBW 251515Z 22013G18KT 25/16 A3003 RMK A01 T02510162  RH  061%=      5-min Rain = 0
KLBW 251520Z 22013KT 25/16 A3003 RMK A01 T02520161  RH  060%=      5-min Rain = 0
KLBW 251525Z 22011KT 25/16 A3003 RMK A01 T02540163  RH  060%=      5-min Rain = 0
KLBW 251530Z 21012KT 26/16 A3003 RMK A01 T02570164  RH  059%=      5-min Rain = 0
KLBW 251535Z 22011KT 26/17 A3003 RMK A01 T02600165  RH  058%=      5-min Rain = 0
KLBW 251540Z 23009KT 26/17 A3003 RMK A01 T02630166  RH  058%=      5-min Rain = 0
KLBW 251545Z 20011KT 27/16 A3003 RMK A01 T02650163  RH  056%=      5-min Rain = 0
KLBW 251550Z 21010G15KT 27/16 A3003 RMK A01 T02660163  RH  056%=      5-min Rain = 0
KLBW 251555Z 22011G16KT 27/16 A3003 RMK A01 T02700164  RH  055%=      5-min Rain = 0
KLBW 251600Z 22012KT 27/16 A3003 RMK A01 T02690161  RH  054%=      5-min Rain = 0
KLBW 251605Z 22010KT 27/16 A3003 RMK A01 T02720163  RH  054%=      5-min Rain = 0
KLBW 251610Z 22010KT 27/16 A3003 RMK A01 T02730162  RH  053%=      5-min Rain = 0
KLBW 251615Z 20009KT 28/17 A3003 RMK A01 T02770165  RH  053%=      5-min Rain = 0
KLBW 251620Z 19009KT 28/16 A3003 RMK A01 T02790164  RH  052%=      5-min Rain = 0
KLBW 251625Z 19008G14KT 28/16 A3003 RMK A01 T02830164  RH  051%=      5-min Rain = 0
KLBW 251630Z 19009KT 28/16 A3003 RMK A01 T02820162  RH  050%=      5-min Rain = 0
KLBW 251635Z 19008KT 28/16 A3003 RMK A01 T02830162  RH  050%=      5-min Rain = 0
KLBW 251640Z 20008KT 29/16 A3003 RMK A01 T02850164  RH  050%=      5-min Rain = 0
KLBW 251645Z 19008KT 29/17 A3003 RMK A01 T02900165  RH  049%=      5-min Rain = 0
KLBW 251650Z 18009KT 29/16 A3003 RMK A01 T02910161  RH  047%=      5-min Rain = 0
KLBW 251655Z 19008KT 29/16 A3003 RMK A01 T02920162  RH  048%=      5-min Rain = 0
KLBW 251700Z 19009KT 29/16 A3003 RMK A01 T02940162  RH  047%=      5-min Rain = 0
KLBW 251705Z 20006KT 30/16 A3003 RMK A01 T02950162  RH  047%=      5-min Rain = 0
KLBW 251710Z 18006G11KT 30/17 A3003 RMK A01 T03010166  RH  047%=      5-min Rain = 0
KLBW 251715Z 19007G13KT 30/16 A3003 RMK A01 T03010161  RH  045%=      5-min Rain = 0
KLBW 251720Z 18006KT 30/16 A3003 RMK A01 T03030156  RH  043%=      5-min Rain = 0
KLBW 251725Z 19007KT 30/16 A3002 RMK A01 T03030159  RH  044%=      5-min Rain = 0
KLBW 251730Z 19007KT 30/16 A3002 RMK A01 T03040159  RH  043%=      5-min Rain = 0
KLBW 251735Z 18006KT 31/16 A3002 RMK A01 T03070157  RH  042%=      5-min Rain = 0
KLBW 251740Z 18005KT 31/16 A3002 RMK A01 T03080155  RH  042%=      5-min Rain = 0
KLBW 251745Z 17006KT 31/16 A3002 RMK A01 T03110158  RH  042%=      5-min Rain = 0
KLBW 251750Z 16005KT 31/16 A3002 RMK A01 T03140161  RH  042%=      5-min Rain = 0
KLBW 251755Z 20005KT 32/16 A3002 RMK A01 T03150157  RH  040%=      5-min Rain = 0
KLBW 251800Z 17007KT 32/16 A3002 RMK A01 T03160155  RH  040%=      5-min Rain = 0
KLBW 251805Z 19005KT 31/15 A3001 RMK A01 T03140147  RH  038%=      5-min Rain = 0
KLBW 251810Z 16006KT 32/15 A3001 RMK A01 T03170151  RH  038%=      5-min Rain = 0
KLBW 251815Z 20003KT 32/15 A3001 RMK A01 T03190151  RH  038%=      5-min Rain = 0
KLBW 251820Z 15005G10KT 32/15 A3001 RMK A01 T03220150  RH  037%=      5-min Rain = 0
KLBW 251825Z 18008KT 32/15 A3001 RMK A01 T03230148  RH  036%=      5-min Rain = 0
KLBW 251830Z 19007KT 32/14 A3001 RMK A01 T03230140  RH  035%=      5-min Rain = 0
KLBW 251835Z 16006KT 33/15 A3001 RMK A01 T03270149  RH  036%=      5-min Rain = 0
KLBW 251840Z 14008KT 33/14 A3001 RMK A01 T03270140  RH  034%=      5-min Rain = 0
KLBW 251845Z 18007G13KT 33/14 A3001 RMK A01 T03280137  RH  033%=      5-min Rain = 0
KLBW 251850Z 18007G12KT 33/14 A3001 RMK A01 T03290135  RH  032%=      5-min Rain = 0
KLBW 251855Z 16008G13KT 33/13 A30 RMK A01 T03330129  RH  030%=      5-min Rain = 0
KLBW 251900Z 17006G11KT 33/13 A30 RMK A01 T03340132  RH  031%=      5-min Rain = 0
KLBW 251905Z 17009KT 34/14 A30 RMK A01 T03350140  RH  032%=      5-min Rain = 0
KLBW 251910Z 12007KT 33/17 A30 RMK A01 T03310169  RH  040%=      5-min Rain = 0
KLBW 251915Z 13009KT 33/17 A30 RMK A01 T03290168  RH  040%=      5-min Rain = 0
KLBW 251920Z 11010G15KT 33/17 A30 RMK A01 T03260170  RH  041%=      5-min Rain = 0
KLBW 251925Z 12013G20KT 32/17 A30 RMK A01 T03230166  RH  041%=      5-min Rain = 0
KLBW 251930Z 11010KT 32/17 A30 RMK A01 T03240170  RH  042%=      5-min Rain = 0
KLBW 251935Z 12009KT 33/16 A30 RMK A01 T03250155  RH  038%=      5-min Rain = 0
KLBW 251940Z 13010KT 33/16 A30 RMK A01 T03310155  RH  036%=      5-min Rain = 0
KLBW 251945Z 12010G15KT 33/14 A2999 RMK A01 T03310136  RH  032%=      5-min Rain = 0
KLBW 251950Z 13012G18KT 33/10 A2999 RMK A01 T03320103  RH  026%=      5-min Rain = 0
KLBW 251955Z 13013G18KT 33/10 A2999 RMK A01 T03320102  RH  025%=      5-min Rain = 0
KLBW 252000Z 14014G19KT 33/11 A2999 RMK A01 T03340110  RH  026%=      5-min Rain = 0
KLBW 252005Z 14012G18KT 33/11 A2999 RMK A01 T03340109  RH  026%=      5-min Rain = 0
KLBW 252010Z 14012G19KT 34/11 A2998 RMK A01 T03360114  RH  027%=      5-min Rain = 0
KLBW 252015Z 14012G19KT 34/12 A2998 RMK A01 T03370119  RH  028%=      5-min Rain = 0
KLBW 252020Z 14013G20KT 34/13 A2998 RMK A01 T03390127  RH  029%=      5-min Rain = 0
KLBW 252025Z 14013G19KT 34/13 A2998 RMK A01 T03360128  RH  030%=      5-min Rain = 0
KLBW 252030Z 12014G23KT 33/16 A2998 RMK A01 T03320160  RH  038%=      5-min Rain = 0
KLBW 252035Z 12014G21KT 33/16 A2998 RMK A01 T03290159  RH  038%=      5-min Rain = 0
KLBW 252040Z 14015G21KT 33/16 A2998 RMK A01 T03280161  RH  039%=      5-min Rain = 0
KLBW 252045Z 12014G21KT 33/17 A2998 RMK A01 T03260165  RH  040%=      5-min Rain = 0
KLBW 252050Z 13015G21KT 32/16 A2998 RMK A01 T03230162  RH  040%=      5-min Rain = 0
KLBW 252055Z 12012G18KT 32/17 A2998 RMK A01 T03240168  RH  041%=      5-min Rain = 0
KLBW 252100Z 12015G21KT 33/16 A2998 RMK A01 T03250164  RH  040%=      5-min Rain = 0
KLBW 252105Z 13014G20KT 32/17 A2997 RMK A01 T03240165  RH  041%=      5-min Rain = 0
KLBW 252110Z 13014G20KT 32/16 A2997 RMK A01 T03240163  RH  040%=      5-min Rain = 0
KLBW 252115Z 13015G21KT 32/16 A2997 RMK A01 T03240156  RH  038%=      5-min Rain = 0
KLBW 252120Z 12016G22KT 32/15 A2997 RMK A01 T03240154  RH  038%=      5-min Rain = 0
KLBW 252125Z 13013G18KT 33/16 A2997 RMK A01 T03280159  RH  038%=      5-min Rain = 0
KLBW 252130Z 12012G20KT 33/16 A2996 RMK A01 T03280158  RH  038%=      5-min Rain = 0
KLBW 252135Z 13015G21KT 33/15 A2996 RMK A01 T03280149  RH  035%=      5-min Rain = 0
KLBW 252140Z 13015G21KT 33/15 A2996 RMK A01 T03260149  RH  036%=      5-min Rain = 0
KLBW 252145Z 13016G22KT 33/15 A2996 RMK A01 T03270145  RH  035%=      5-min Rain = 0
KLBW 252150Z 14015G21KT 33/15 A2996 RMK A01 T03270145  RH  035%=      5-min Rain = 0
KLBW 252155Z 14013G20KT 33/15 A2996 RMK A01 T03280152  RH  036%=      5-min Rain = 0
KLBW 252200Z 13014G20KT 33/15 A2996 RMK A01 T03280147  RH  035%=      5-min Rain = 0
KLBW 252205Z 13014G19KT 33/14 A2996 RMK A01 T03280143  RH  034%=      5-min Rain = 0
KLBW 252210Z 14015G21KT 33/14 A2995 RMK A01 T03280142  RH  034%=      5-min Rain = 0
KLBW 252215Z 14014G19KT 33/14 A2995 RMK A01 T03300142  RH  034%=      5-min Rain = 0
KLBW 252220Z 14014G19KT 33/14 A2995 RMK A01 T03280138  RH  033%=      5-min Rain = 0
KLBW 252225Z 15013G19KT 33/14 A2995 RMK A01 T03290139  RH  033%=      5-min Rain = 0
KLBW 252230Z 14014G20KT 33/13 A2995 RMK A01 T03270133  RH  032%=      5-min Rain = 0
KLBW 252235Z 14016G22KT 32/12 A2995 RMK A01 T03180124  RH  032%=      5-min Rain = 0
KLBW 252240Z 14014KT 32/12 A2995 RMK A01 T03240124  RH  031%=      5-min Rain = 0
KLBW 252245Z 14011G17KT 33/13 A2995 RMK A01 T03290132  RH  032%=      5-min Rain = 0
KLBW 252250Z 15011G17KT 33/14 A2995 RMK A01 T03300135  RH  032%=      5-min Rain = 0
KLBW 252255Z 14013G20KT 33/13 A2995 RMK A01 T03280132  RH  032%=      5-min Rain = 0
KLBW 252300Z 15015KT 32/13 A2995 RMK A01 T03210126  RH  032%=      5-min Rain = 0
KLBW 252305Z 14013G20KT 32/13 A2995 RMK A01 T03180128  RH  033%=      5-min Rain = 0
KLBW 252310Z 14013G18KT 32/13 A2994 RMK A01 T03230133  RH  033%=      5-min Rain = 0
KLBW 252315Z 14015G21KT 32/14 A2994 RMK A01 T03220138  RH  034%=      5-min Rain = 0
KLBW 252320Z 13014G21KT 32/14 A2994 RMK A01 T03200144  RH  036%=      5-min Rain = 0
KLBW 252325Z 13013G20KT 32/15 A2994 RMK A01 T03170150  RH  038%=      5-min Rain = 0
KLBW 252330Z 13014G22KT 32/15 A2994 RMK A01 T03170149  RH  038%=      5-min Rain = 0
KLBW 252335Z 14015G20KT 32/15 A2993 RMK A01 T03150149  RH  038%=      5-min Rain = 0
KLBW 252340Z 13014G20KT 32/15 A2993 RMK A01 T03150150  RH  038%=      5-min Rain = 0
KLBW 252345Z 13013G19KT 32/15 A2993 RMK A01 T03150149  RH  038%=      5-min Rain = 0
KLBW 252350Z 13014G21KT 31/15 A2993 RMK A01 T03140147  RH  038%=      5-min Rain = 0
KLBW 252355Z 14013G21KT 31/15 A2992 RMK A01 T03140147  RH  038%=      5-min Rain = 0
KLBW 260000Z 15015G24KT 32/14 A2992 RMK A01 T03160142  RH  036%=      5-min Rain = 0
KLBW 260005Z 14015G22KT 31/14 A2992 RMK A01 T03140143  RH  037%=      5-min Rain = 0
KLBW 260010Z 14015G21KT 31/15 A2993 RMK A01 T03110145  RH  038%=      5-min Rain = 0
KLBW 260015Z 14014G22KT 31/15 A2993 RMK A01 T03110145  RH  038%=      5-min Rain = 0
KLBW 260020Z 14015G21KT 31/14 A2993 RMK A01 T03090144  RH  038%=      5-min Rain = 0
KLBW 260025Z 14016G23KT 31/14 A2993 RMK A01 T03080144  RH  038%=      5-min Rain = 0
KLBW 260030Z 14014G21KT 31/15 A2994 RMK A01 T03070147  RH  039%=      5-min Rain = 0
KLBW 260035Z 13014G21KT 31/15 A2994 RMK A01 T03050146  RH  040%=      5-min Rain = 0
KLBW 260040Z 14013G20KT 30/15 A2994 RMK A01 T03040148  RH  040%=      5-min Rain = 0
KLBW 260045Z 13015G20KT 30/15 A2995 RMK A01 T03020147  RH  041%=      5-min Rain = 0
KLBW 260050Z 13013G19KT 30/15 A2995 RMK A01 T03000149  RH  042%=      5-min Rain = 0
KLBW 260055Z 13015G24KT 30/15 A2995 RMK A01 T02990149  RH  042%=      5-min Rain = 0
KLBW 260100Z 13018G25KT 30/15 A2995 RMK A01 T02980146  RH  041%=      5-min Rain = 0
KLBW 260105Z 13013G20KT 30/15 A2995 RMK A01 T02970149  RH  042%=      5-min Rain = 0
KLBW 260110Z 13015G24KT 30/15 A2996 RMK A01 T02950150  RH  043%=      5-min Rain = 0
KLBW 260115Z 12016G23KT 29/15 A2996 RMK A01 T02930149  RH  043%=      5-min Rain = 0
KLBW 260120Z 13015G24KT 29/15 A2996 RMK A01 T02920149  RH  044%=      5-min Rain = 0
KLBW 260125Z 13016G22KT 29/15 A2996 RMK A01 T02900148  RH  044%=      5-min Rain = 0
KLBW 260130Z 12013G21KT 29/15 A2996 RMK A01 T02890147  RH  044%=      5-min Rain = 0
KLBW 260135Z 13014G23KT 29/15 A2996 RMK A01 T02870148  RH  045%=      5-min Rain = 0
KLBW 260140Z 13013G24KT 29/15 A2997 RMK A01 T02850147  RH  045%=      5-min Rain = 0
KLBW 260145Z 13014G22KT 28/15 A2997 RMK A01 T02830146  RH  045%=      5-min Rain = 0
KLBW 260150Z 13013G18KT 28/15 A2998 RMK A01 T02820146  RH  045%=      5-min Rain = 0
KLBW 260155Z 13016G24KT 28/15 A2998 RMK A01 T02810145  RH  045%=      5-min Rain = 0
KLBW 260200Z 13014G22KT 28/15 A2998 RMK A01 T02810145  RH  045%=      5-min Rain = 0
KLBW 260205Z 13014G21KT 28/15 A2999 RMK A01 T02780145  RH  046%=      5-min Rain = 0
KLBW 260210Z 13015G22KT 28/14 A2999 RMK A01 T02770144  RH  046%=      5-min Rain = 0
KLBW 260215Z 13014G21KT 28/14 A2999 RMK A01 T02770143  RH  046%=      5-min Rain = 0
KLBW 260220Z 13015G23KT 28/14 A2999 RMK A01 T02760143  RH  046%=      5-min Rain = 0
KLBW 260225Z 13014G20KT 28/14 A2999 RMK A01 T02750144  RH  047%=      5-min Rain = 0
KLBW 260230Z 14014G19KT 27/14 A2999 RMK A01 T02740144  RH  047%=      5-min Rain = 0
KLBW 260235Z 14015G23KT 27/14 A30 RMK A01 T02740144  RH  047%=      5-min Rain = 0
KLBW 260240Z 13013G19KT 27/15 A30 RMK A01 T02730145  RH  047%=      5-min Rain = 0
KLBW 260245Z 14012G18KT 27/15 A3001 RMK A01 T02710146  RH  048%=      5-min Rain = 0
KLBW 260250Z 14012G21KT 27/15 A3002 RMK A01 T02700146  RH  049%=      5-min Rain = 0
KLBW 260255Z 13012G19KT 27/15 A3003 RMK A01 T02700146  RH  049%=      5-min Rain = 0
KLBW 260300Z 10010G16KT 27/15 A3004 RMK A01 T02690146  RH  049%=      5-min Rain = 0
KLBW 260305Z 09012G18KT 27/15 A3006 RMK A01 T02690146  RH  049%=      5-min Rain = 0
KLBW 260310Z 07012G17KT 27/15 A3007 RMK A01 T02690145  RH  049%=      5-min Rain = 0
KLBW 260315Z 06011G17KT 27/15 A3008 RMK A01 T02670146  RH  049%=      5-min Rain = 0
KLBW 260320Z 06012G17KT 27/15 A3008 RMK A01 T02660149  RH  051%=      5-min Rain = 0
KLBW 260325Z 07011G17KT 27/15 A3009 RMK A01 T02670150  RH  051%=      5-min Rain = 0
KLBW 260330Z 06012G23KT 27/15 A3009 RMK A01 T02660147  RH  050%=      5-min Rain = 0
KLBW 260335Z 06012G22KT 25/14 A301 RMK A01 T02500137  RH  051%=      5-min Rain = 0
KLBW 260340Z 05011G20KT 25/14 A3011 RMK A01 T02470138  RH  053%=      5-min Rain = 0
KLBW 260345Z 04015G24KT 23/13 A3011 RMK A01 T02320134  RH  056%=      5-min Rain = 0
KLBW 260350Z 05015G21KT 22/14 A301 RMK A01 T02220135  RH  060%=      5-min Rain = 0
KLBW 260355Z 06015G22KT 22/14 A301 RMK A01 T02180139  RH  063%=      5-min Rain = 0
KLBW 260400Z 06014G20KT 21/14 A3011 RMK A01 T02140141  RH  066%=      5-min Rain = 0
KLBW 260405Z 06013G20KT 21/14 A3012 RMK A01 T02120144  RH  068%=      5-min Rain = 0
KLBW 260410Z 07014G20KT 21/15 A3012 RMK A01 T02120145  RH  068%=      5-min Rain = 0.01
KLBW 260415Z 07012G17KT 21/15 A3012 RMK A01 T02130148  RH  069%=      5-min Rain = 0.01
KLBW 260420Z 09009G14KT 21/15 A3013 RMK A01 T02100150  RH  072%=      5-min Rain = 0.02
KLBW 260425Z 09008G13KT 21/15 A3013 RMK A01 T02060154  RH  076%=      5-min Rain = 0.04
KLBW 260430Z 10010KT 21/16 A3013 RMK A01 T02060158  RH  078%=      5-min Rain = 0.02
KLBW 260435Z 11009KT 21/16 A3014 RMK A01 T02050161  RH  079%=      5-min Rain = 0.07
KLBW 260440Z 09011KT 20/16 A3014 RMK A01 T02040162  RH  081%=      5-min Rain = 0.07
KLBW 260445Z 09011G16KT 20/16 A3014 RMK A01 T02030162  RH  081%=      5-min Rain = 0.03
KLBW 260450Z 09010G15KT 20/16 A3013 RMK A01 T02020161  RH  081%=      5-min Rain = 0.01
KLBW 260455Z 10007KT 20/16 A3013 RMK A01 T01990163  RH  084%=      5-min Rain = 0.01

Page generated in 0.0101 seconds.